Time;durP1;ratioP1;P1;durP2;ratioP2;P2;SDS_P1;SDS_P2;PMS_P1;PMS_P2;Temp;Humidity;BMP_temperature;BMP_pressure;BME280_temperature;BME280_humidity;BME280_pressure;Samples;Min_cycle;Max_cycle;Signal;HPM_P1;HPM_P2
2022/11/28 00:00:29;;;;;;;;;;;22.10;99.90;;;;;;5042912;28;19954;-71
2022/11/28 00:02:56;;;;;;;;;;;22.40;99.90;;;;;;5042367;28;19912;-73
2022/11/28 00:05:22;;;;;;;;;;;22.80;99.90;;;;;;5055809;28;19908;-73
2022/11/28 00:07:49;;;;;;;;;;;23.00;99.90;;;;;;5059105;28;20369;-74
2022/11/28 00:10:16;;;;;;;;;;;23.20;99.90;;;;;;5060303;28;19919;-72
2022/11/28 00:12:42;;;;;;;;;;;23.30;99.90;;;;;;5057940;28;20008;-72
2022/11/28 00:15:10;;;;;;;;;;;23.20;99.90;;;;;;5048718;28;20012;-72
2022/11/28 00:17:36;;;;;;;;;;;23.30;99.90;;;;;;5051355;28;20323;-73
2022/11/28 00:20:03;;;;;;;;;;;23.50;99.90;;;;;;5058315;28;20294;-73
2022/11/28 00:22:30;;;;;;;;;;;23.60;99.90;;;;;;5057932;28;19912;-74
2022/11/28 00:24:56;;;;;;;;;;;23.80;99.60;;;;;;5059625;28;20293;-72
2022/11/28 00:27:23;;;;;;;;;;;23.70;99.60;;;;;;5059919;28;19915;-72
2022/11/28 00:29:50;;;;;;;;;;;23.60;99.50;;;;;;5060105;28;20011;-72
2022/11/28 00:32:16;;;;;;;;;;;23.60;99.90;;;;;;5059237;28;19912;-71
2022/11/28 00:34:43;;;;;;;;;;;23.70;99.90;;;;;;5051858;28;19965;-72
2022/11/28 00:37:10;;;;;;;;;;;23.80;99.50;;;;;;5058884;28;19909;-72
2022/11/28 00:39:36;;;;;;;;;;;23.80;98.90;;;;;;5057493;28;19954;-71
2022/11/28 00:42:03;;;;;;;;;;;23.70;98.70;;;;;;5076644;28;20563;-72
2022/11/28 00:44:30;;;;;;;;;;;23.60;98.80;;;;;;5060304;28;19908;-72
2022/11/28 00:46:56;;;;;;;;;;;23.50;99.10;;;;;;5058618;28;19908;-71
2022/11/28 00:49:23;;;;;;;;;;;23.50;99.40;;;;;;5061083;28;19916;-71
2022/11/28 00:51:49;;;;;;;;;;;23.80;99.60;;;;;;5057427;28;19920;-71
2022/11/28 00:54:16;;;;;;;;;;;24.00;99.00;;;;;;5056325;28;19912;-71
2022/11/28 00:56:43;;;;;;;;;;;24.30;98.60;;;;;;5056286;28;19912;-72
2022/11/28 00:59:09;;;;;;;;;;;24.60;98.20;;;;;;5058275;28;19913;-73
2022/11/28 01:01:40;;;;;;;;;;;24.90;98.10;;;;;;5056515;28;19916;-70
2022/11/28 01:04:08;;;;;;;;;;;24.90;97.60;;;;;;5057409;28;19917;-72
2022/11/28 01:06:36;;;;;;;;;;;24.80;98.00;;;;;;5054239;28;19916;-72
2022/11/28 01:09:05;;;;;;;;;;;24.60;98.20;;;;;;5039865;28;19920;-71
2022/11/28 01:11:32;;;;;;;;;;;24.50;98.50;;;;;;5050864;28;19970;-73
2022/11/28 01:13:59;;;;;;;;;;;24.40;97.80;;;;;;5058928;28;19908;-73
2022/11/28 01:16:27;;;;;;;;;;;24.30;98.40;;;;;;5047058;28;20518;-70
2022/11/28 01:18:53;;;;;;;;;;;24.40;98.10;;;;;;5046779;28;19913;-72
2022/11/28 01:21:21;;;;;;;;;;;24.50;97.70;;;;;;5045343;28;19913;-72
2022/11/28 01:23:47;;;;;;;;;;;24.40;97.60;;;;;;5048619;28;19989;-72
2022/11/28 01:26:18;;;;;;;;;;;24.40;97.60;;;;;;5053418;28;20305;-72
2022/11/28 01:28:45;;;;;;;;;;;24.50;97.40;;;;;;5053736;28;19936;-72
2022/11/28 01:31:14;;;;;;;;;;;24.60;97.30;;;;;;5048395;28;19927;-70
2022/11/28 01:33:41;;;;;;;;;;;24.80;96.80;;;;;;5044443;28;19913;-72
2022/11/28 01:36:09;;;;;;;;;;;24.80;97.70;;;;;;5042802;28;19912;-72
2022/11/28 01:38:35;;;;;;;;;;;25.30;96.50;;;;;;5058382;28;20011;-72
2022/11/28 01:41:02;;;;;;;;;;;25.80;96.10;;;;;;5053643;28;20405;-71
2022/11/28 01:43:29;;;;;;;;;;;26.10;95.00;;;;;;5054179;28;20003;-70
2022/11/28 01:45:56;;;;;;;;;;;26.10;94.90;;;;;;5052879;28;20269;-71
2022/11/28 01:48:25;;;;;;;;;;;26.10;94.00;;;;;;5058445;28;20369;-72
2022/11/28 01:50:54;;;;;;;;;;;26.10;94.80;;;;;;5051268;28;19982;-71
2022/11/28 01:53:21;;;;;;;;;;;25.80;95.10;;;;;;5053149;28;19966;-72
2022/11/28 01:55:58;;;;;;;;;;;25.70;95.00;;;;;;5038308;28;19912;-71
2022/11/28 01:58:25;;;;;;;;;;;25.90;94.60;;;;;;5044923;28;19913;-72
2022/11/28 02:00:52;;;;;;;;;;;25.90;94.30;;;;;;5052218;28;19919;-73
2022/11/28 02:03:25;;;;;;;;;;;26.20;94.90;;;;;;5049012;28;20258;-71
2022/11/28 02:05:52;;;;;;;;;;;26.80;93.10;;;;;;5059525;28;19908;-71
2022/11/28 02:08:19;;;;;;;;;;;27.20;93.30;;;;;;5056280;28;19908;-69
2022/11/28 02:11:07;;;;;;;;;;;27.50;92.50;;;;;;5058295;28;20580;-73
2022/11/28 02:13:54;;;;;;;;;;;27.90;92.10;;;;;;5057081;28;20217;-71
2022/11/28 02:16:39;;;;;;;;;;;28.30;91.00;;;;;;5057081;28;19919;-71
2022/11/28 02:19:08;;;;;;;;;;;28.00;90.80;;;;;;5044160;28;19969;-70
2022/11/28 02:21:45;;;;;;;;;;;27.70;91.10;;;;;;5056822;28;19908;-70
2022/11/28 02:24:21;;;;;;;;;;;27.60;91.10;;;;;;5056213;28;19920;-72
2022/11/28 02:26:56;;;;;;;;;;;27.60;91.60;;;;;;5056754;28;19961;-71
2022/11/28 02:29:23;;;;;;;;;;;27.80;91.40;;;;;;5057250;28;20097;-71
2022/11/28 02:32:08;;;;;;;;;;;27.70;90.90;;;;;;5057917;28;20388;-71
2022/11/28 02:34:40;;;;;;;;;;;26.90;91.60;;;;;;5057469;28;19947;-71
2022/11/28 02:37:09;;;;;;;;;;;27.20;92.10;;;;;;5055376;28;19954;-71
2022/11/28 02:39:48;;;;;;;;;;;27.50;92.70;;;;;;5056302;28;19920;-71
2022/11/28 02:42:18;;;;;;;;;;;27.60;91.00;;;;;;5035976;28;19956;-71
2022/11/28 02:44:53;;;;;;;;;;;27.70;90.90;;;;;;5040106;28;19912;-72
2022/11/28 02:47:26;;;;;;;;;;;27.50;90.90;;;;;;5055306;28;19912;-73
2022/11/28 02:50:15;;;;;;;;;;;27.00;91.30;;;;;;5057433;28;19920;-73
2022/11/28 02:53:11;;;;;;;;;;;27.00;91.50;;;;;;5037515;28;19917;-70
2022/11/28 02:55:42;;;;;;;;;;;26.90;91.50;;;;;;5037896;28;19944;-71
2022/11/28 02:58:10;;;;;;;;;;;26.30;91.70;;;;;;5055215;28;19908;-71
2022/11/28 03:00:38;;;;;;;;;;;25.70;92.60;;;;;;5055112;28;19957;-72
2022/11/28 03:03:22;;;;;;;;;;;25.70;92.70;;;;;;5048939;28;19909;-72
2022/11/28 03:05:57;;;;;;;;;;;25.60;92.70;;;;;;5056995;28;19912;-73
2022/11/28 03:08:46;;;;;;;;;;;25.60;93.90;;;;;;5048838;28;19913;-73
2022/11/28 03:11:26;;;;;;;;;;;26.90;91.40;;;;;;5053742;28;19920;-71
2022/11/28 03:14:02;;;;;;;;;;;26.50;91.30;;;;;;5056359;28;19954;-70
2022/11/28 03:16:30;;;;;;;;;;;26.60;91.00;;;;;;5043197;28;19921;-72
2022/11/28 03:19:10;;;;;;;;;;;26.60;91.20;;;;;;5049913;28;20304;-72
2022/11/28 03:21:46;;;;;;;;;;;26.40;91.80;;;;;;5042615;28;19999;-72
2022/11/28 03:24:24;;;;;;;;;;;26.90;91.20;;;;;;5034435;28;20325;-74
2022/11/28 03:26:53;;;;;;;;;;;28.20;90.30;;;;;;5042403;28;19918;-73
2022/11/28 03:29:28;;;;;;;;;;;29.50;86.80;;;;;;5054594;28;20008;-73
2022/11/28 03:31:56;;;;;;;;;;;31.30;82.00;;;;;;5041095;28;20439;-72
2022/11/28 03:34:25;;;;;;;;;;;32.80;77.70;;;;;;5035521;28;19923;-72
2022/11/28 03:36:56;;;;;;;;;;;33.10;75.00;;;;;;5050441;28;19957;-73
2022/11/28 03:39:24;;;;;;;;;;;31.90;77.30;;;;;;5055541;28;19916;-72
2022/11/28 03:41:53;;;;;;;;;;;31.90;77.30;;;;;;5041226;28;19913;-70
2022/11/28 03:44:26;;;;;;;;;;;32.00;76.60;;;;;;5043124;28;19917;-72
2022/11/28 03:46:54;;;;;;;;;;;32.50;75.20;;;;;;5056683;28;19983;-72
2022/11/28 03:49:30;;;;;;;;;;;33.20;76.10;;;;;;5058894;28;19917;-71
2022/11/28 03:52:02;;;;;;;;;;;33.50;72.30;;;;;;5052698;28;19921;-71
2022/11/28 03:54:49;;;;;;;;;;;32.60;74.00;;;;;;5058917;28;19908;-73
2022/11/28 03:57:35;;;;;;;;;;;30.90;75.10;;;;;;5058532;28;19912;-72
2022/11/28 04:00:08;;;;;;;;;;;29.40;78.80;;;;;;5045993;28;20297;-72
2022/11/28 04:02:54;;;;;;;;;;;29.20;81.10;;;;;;5047654;28;20357;-71
2022/11/28 04:05:24;;;;;;;;;;;29.80;78.60;;;;;;5053703;28;19960;-73
2022/11/28 04:07:58;;;;;;;;;;;29.40;78.60;;;;;;5049032;28;19917;-70
2022/11/28 04:10:29;;;;;;;;;;;27.90;82.90;;;;;;5059227;28;19974;-71
2022/11/28 04:13:01;;;;;;;;;;;27.50;84.60;;;;;;5054289;28;19909;-70
2022/11/28 04:15:31;;;;;;;;;;;28.30;82.90;;;;;;5061312;28;20412;-71
2022/11/28 04:18:06;;;;;;;;;;;29.20;80.00;;;;;;5052806;28;19947;-71
2022/11/28 04:20:35;;;;;;;;;;;29.70;79.70;;;;;;5057072;28;20094;-71
2022/11/28 04:23:07;;;;;;;;;;;29.60;78.50;;;;;;5042684;28;19921;-74
2022/11/28 04:25:36;;;;;;;;;;;29.10;80.10;;;;;;5052020;28;19917;-71
2022/11/28 04:28:04;;;;;;;;;;;28.80;80.10;;;;;;5052768;28;19916;-72
2022/11/28 04:30:32;;;;;;;;;;;27.50;82.70;;;;;;5052961;28;20393;-72
2022/11/28 04:33:00;;;;;;;;;;;27.30;84.90;;;;;;5053527;28;19925;-73
2022/11/28 04:35:35;;;;;;;;;;;27.60;84.40;;;;;;5048258;28;20393;-72
2022/11/28 04:38:04;;;;;;;;;;;27.70;83.00;;;;;;5045431;28;19912;-72
2022/11/28 04:40:32;;;;;;;;;;;27.90;83.10;;;;;;5055130;28;20002;-72
2022/11/28 04:43:01;;;;;;;;;;;28.10;82.40;;;;;;5045466;28;19971;-72
2022/11/28 04:45:28;;;;;;;;;;;27.70;83.60;;;;;;5051564;28;19973;-69
2022/11/28 04:47:55;;;;;;;;;;;28.20;82.40;;;;;;5041779;28;20321;-72
2022/11/28 04:50:23;;;;;;;;;;;29.00;84.30;;;;;;5037884;28;19921;-71
2022/11/28 04:52:55;;;;;;;;;;;30.90;77.10;;;;;;5051398;28;19909;-69
2022/11/28 04:55:28;;;;;;;;;;;32.10;75.00;;;;;;5049988;28;19917;-72
2022/11/28 04:58:18;;;;;;;;;;;33.30;71.00;;;;;;5040703;28;19913;-72
2022/11/28 05:00:46;;;;;;;;;;;32.00;72.80;;;;;;5043453;28;19921;-72
2022/11/28 05:03:12;;;;;;;;;;;31.80;72.50;;;;;;5044844;28;20325;-73
2022/11/28 05:05:44;;;;;;;;;;;30.90;73.80;;;;;;5045177;28;19909;-70
2022/11/28 05:08:10;;;;;;;;;;;29.60;76.60;;;;;;5045903;28;19908;-69
2022/11/28 05:10:37;;;;;;;;;;;29.80;77.80;;;;;;5047030;28;19924;-71
2022/11/28 05:13:04;;;;;;;;;;;31.30;74.60;;;;;;5046632;28;20289;-70
2022/11/28 05:15:31;;;;;;;;;;;32.00;73.60;;;;;;5040176;28;20692;-71
2022/11/28 05:17:57;;;;;;;;;;;33.80;69.40;;;;;;5043814;28;19913;-70
2022/11/28 05:20:25;;;;;;;;;;;34.30;69.00;;;;;;5046233;28;19977;-70
2022/11/28 05:22:51;;;;;;;;;;;33.10;69.40;;;;;;5046432;28;20003;-69
2022/11/28 05:25:18;;;;;;;;;;;33.40;69.10;;;;;;5042537;28;19924;-71
2022/11/28 05:27:45;;;;;;;;;;;33.70;67.80;;;;;;5048520;28;19917;-71
2022/11/28 05:30:11;;;;;;;;;;;33.50;69.50;;;;;;5046670;28;20456;-69
2022/11/28 05:32:38;;;;;;;;;;;33.30;68.20;;;;;;5050445;28;19916;-70
2022/11/28 05:35:05;;;;;;;;;;;32.80;69.30;;;;;;5052230;28;19919;-68
2022/11/28 05:37:32;;;;;;;;;;;33.70;68.30;;;;;;5045525;28;20001;-70
2022/11/28 05:39:59;;;;;;;;;;;33.70;68.10;;;;;;5048017;28;19908;-72
2022/11/28 05:42:27;;;;;;;;;;;32.80;68.60;;;;;;5050075;28;19995;-72
2022/11/28 05:44:53;;;;;;;;;;;31.60;71.50;;;;;;5044599;28;19927;-71
2022/11/28 05:47:22;;;;;;;;;;;30.60;73.80;;;;;;5053635;28;19909;-72
2022/11/28 05:49:49;;;;;;;;;;;30.40;73.90;;;;;;5050858;28;19952;-71
2022/11/28 05:52:15;;;;;;;;;;;30.50;74.30;;;;;;5051977;28;20351;-72
2022/11/28 05:54:42;;;;;;;;;;;30.20;73.70;;;;;;5038442;28;19913;-70
2022/11/28 05:57:09;;;;;;;;;;;28.70;77.50;;;;;;5040028;28;20007;-68
2022/11/28 05:59:35;;;;;;;;;;;28.70;77.50;;;;;;5041408;28;20083;-71
2022/11/28 06:02:02;;;;;;;;;;;28.10;78.30;;;;;;5052676;28;20005;-70
2022/11/28 06:04:29;;;;;;;;;;;27.40;80.40;;;;;;5044491;28;19916;-71
2022/11/28 06:06:55;;;;;;;;;;;27.00;81.50;;;;;;5045264;28;19916;-70
2022/11/28 06:09:22;;;;;;;;;;;26.90;81.90;;;;;;5045217;28;19913;-71
2022/11/28 06:11:49;;;;;;;;;;;27.10;82.60;;;;;;5046649;28;19927;-69
2022/11/28 06:14:15;;;;;;;;;;;27.40;81.00;;;;;;5046972;28;19970;-70
2022/11/28 06:16:42;;;;;;;;;;;27.60;80.90;;;;;;5044621;28;20037;-71
2022/11/28 06:19:12;;;;;;;;;;;27.60;80.50;;;;;;5043288;28;19909;-72
2022/11/28 06:21:39;;;;;;;;;;;27.10;82.10;;;;;;5044884;28;19909;-72
2022/11/28 06:24:06;;;;;;;;;;;27.10;82.00;;;;;;5042481;28;19974;-71
2022/11/28 06:26:32;;;;;;;;;;;27.00;82.00;;;;;;5044597;28;19970;-70
2022/11/28 06:28:59;;;;;;;;;;;26.80;82.90;;;;;;5054228;28;19909;-71
2022/11/28 06:31:29;;;;;;;;;;;26.60;83.60;;;;;;5047984;28;20412;-70
2022/11/28 06:33:57;;;;;;;;;;;26.80;83.10;;;;;;5045766;28;19923;-70
2022/11/28 06:36:25;;;;;;;;;;;26.90;84.20;;;;;;5045580;28;19921;-73
2022/11/28 06:38:52;;;;;;;;;;;27.00;83.00;;;;;;5056365;28;19912;-74
2022/11/28 06:41:19;;;;;;;;;;;27.00;82.70;;;;;;5055883;28;19969;-68
2022/11/28 06:43:46;;;;;;;;;;;26.60;82.10;;;;;;5056629;28;19967;-70
2022/11/28 06:46:14;;;;;;;;;;;26.00;84.40;;;;;;5056747;28;19954;-72
2022/11/28 06:48:41;;;;;;;;;;;25.70;84.60;;;;;;5056640;28;19909;-72
2022/11/28 06:51:07;;;;;;;;;;;25.30;86.90;;;;;;5055213;28;20365;-73
2022/11/28 06:53:35;;;;;;;;;;;25.50;86.00;;;;;;5054148;28;19997;-71
2022/11/28 06:56:09;;;;;;;;;;;25.30;85.00;;;;;;5035629;28;19948;-70
2022/11/28 06:58:36;;;;;;;;;;;24.90;86.90;;;;;;5035997;28;20380;-70
2022/11/28 07:01:10;;;;;;;;;;;24.90;87.20;;;;;;5035988;28;20018;-72
2022/11/28 07:03:38;;;;;;;;;;;24.60;87.80;;;;;;5036290;28;19915;-71
2022/11/28 07:06:05;;;;;;;;;;;24.40;88.50;;;;;;5036906;28;20565;-71
2022/11/28 07:08:32;;;;;;;;;;;24.10;89.60;;;;;;5036952;28;19916;-73
2022/11/28 07:11:06;;;;;;;;;;;23.70;90.30;;;;;;5037770;28;20007;-71
2022/11/28 07:13:33;;;;;;;;;;;23.70;90.70;;;;;;5043786;28;19990;-71
2022/11/28 07:15:59;;;;;;;;;;;24.20;89.80;;;;;;5063151;28;20045;-70
2022/11/28 07:18:26;;;;;;;;;;;24.40;89.80;;;;;;5064080;28;19916;-71
2022/11/28 07:20:52;;;;;;;;;;;24.70;88.70;;;;;;5063460;28;19999;-71
2022/11/28 07:23:19;;;;;;;;;;;24.70;88.50;;;;;;5063214;28;20016;-72
2022/11/28 07:25:46;;;;;;;;;;;24.60;89.00;;;;;;5063736;28;19913;-70
2022/11/28 07:28:13;;;;;;;;;;;24.40;89.90;;;;;;5045596;28;19912;-69
2022/11/28 07:30:40;;;;;;;;;;;24.30;89.80;;;;;;5042699;28;19917;-70
2022/11/28 07:33:06;;;;;;;;;;;24.30;89.20;;;;;;5043978;28;19913;-70
2022/11/28 07:35:33;;;;;;;;;;;23.90;90.00;;;;;;5063843;28;20276;-71
2022/11/28 07:38:00;;;;;;;;;;;23.60;91.00;;;;;;5063579;28;20327;-73
2022/11/28 07:40:26;;;;;;;;;;;23.70;90.80;;;;;;5063232;28;19913;-70
2022/11/28 07:42:53;;;;;;;;;;;23.70;90.90;;;;;;5063197;28;20276;-70
2022/11/28 07:45:20;;;;;;;;;;;23.70;90.30;;;;;;5063075;28;19920;-68
2022/11/28 07:47:46;;;;;;;;;;;23.40;91.00;;;;;;5059882;28;19978;-70
2022/11/28 07:50:13;;;;;;;;;;;23.40;91.30;;;;;;5062604;28;20428;-71
2022/11/28 07:52:40;;;;;;;;;;;23.50;91.20;;;;;;5061035;28;19917;-72
2022/11/28 07:55:06;;;;;;;;;;;23.60;91.10;;;;;;5063326;28;19908;-71
2022/11/28 07:57:33;;;;;;;;;;;23.50;91.30;;;;;;5062364;28;19915;-70
2022/11/28 08:00:00;;;;;;;;;;;23.50;91.30;;;;;;5043121;28;19939;-71
2022/11/28 08:02:31;;;;;;;;;;;23.50;91.60;;;;;;5047079;28;19917;-72
2022/11/28 08:04:58;;;;;;;;;;;23.40;91.50;;;;;;5050469;28;19920;-71
2022/11/28 08:07:25;;;;;;;;;;;23.10;91.50;;;;;;5050877;28;20494;-72
2022/11/28 08:09:51;;;;;;;;;;;22.70;92.30;;;;;;5049256;28;19912;-70
2022/11/28 08:12:18;;;;;;;;;;;22.40;92.80;;;;;;5051872;28;19916;-70
2022/11/28 08:14:45;;;;;;;;;;;22.20;93.00;;;;;;5052454;28;19919;-70
2022/11/28 08:17:11;;;;;;;;;;;22.20;93.40;;;;;;5049802;28;20016;-73
2022/11/28 08:19:38;;;;;;;;;;;22.20;93.60;;;;;;5048700;28;19987;-71
2022/11/28 08:22:05;;;;;;;;;;;22.20;93.60;;;;;;5053067;28;19923;-71
2022/11/28 08:24:31;;;;;;;;;;;22.30;93.50;;;;;;5048362;28;19978;-72
2022/11/28 08:26:58;;;;;;;;;;;22.30;93.60;;;;;;5045689;28;19909;-72
2022/11/28 08:29:25;;;;;;;;;;;22.10;93.50;;;;;;5048723;28;19970;-72
2022/11/28 08:31:51;;;;;;;;;;;22.00;93.90;;;;;;5045031;28;19974;-71
2022/11/28 08:34:18;;;;;;;;;;;21.80;94.60;;;;;;5049202;28;19917;-71
2022/11/28 08:36:46;;;;;;;;;;;21.70;94.90;;;;;;5047666;28;19944;-71
2022/11/28 08:39:12;;;;;;;;;;;21.80;94.80;;;;;;5058656;28;19999;-72
2022/11/28 08:41:39;;;;;;;;;;;21.60;95.00;;;;;;5059315;28;19966;-71
2022/11/28 08:44:06;;;;;;;;;;;21.50;95.30;;;;;;5053776;28;19917;-70
2022/11/28 08:46:32;;;;;;;;;;;21.40;95.60;;;;;;5054966;28;20320;-71
2022/11/28 08:49:00;;;;;;;;;;;21.30;95.70;;;;;;5037799;28;20066;-71
2022/11/28 08:51:28;;;;;;;;;;;21.20;96.30;;;;;;5039834;28;20436;-72
2022/11/28 08:53:55;;;;;;;;;;;21.20;96.60;;;;;;5042861;28;20266;-72
2022/11/28 08:56:22;;;;;;;;;;;21.10;96.50;;;;;;5058666;28;19915;-72
2022/11/28 08:58:49;;;;;;;;;;;21.10;96.60;;;;;;5058579;28;19909;-71
2022/11/28 09:01:20;;;;;;;;;;;21.20;96.70;;;;;;5058318;28;19908;-71
2022/11/28 09:03:47;;;;;;;;;;;21.10;97.10;;;;;;5060069;28;20390;-72
2022/11/28 09:06:14;;;;;;;;;;;20.90;97.60;;;;;;5058663;28;19913;-71
2022/11/28 09:08:41;;;;;;;;;;;20.90;97.80;;;;;;5058883;28;20013;-72
2022/11/28 09:11:09;;;;;;;;;;;20.80;98.20;;;;;;5058200;28;19920;-70
2022/11/28 09:13:36;;;;;;;;;;;20.70;98.50;;;;;;5056854;28;20534;-71
2022/11/28 09:16:03;;;;;;;;;;;20.70;99.20;;;;;;5056962;28;20425;-71
2022/11/28 09:18:30;;;;;;;;;;;20.70;99.30;;;;;;5058686;28;20293;-71
2022/11/28 09:20:57;;;;;;;;;;;20.70;99.60;;;;;;5058556;28;20427;-71
2022/11/28 09:23:24;;;;;;;;;;;20.70;99.70;;;;;;5057919;28;20042;-71
2022/11/28 09:25:51;;;;;;;;;;;20.50;99.90;;;;;;5059004;28;19919;-70
2022/11/28 09:28:17;;;;;;;;;;;20.50;99.90;;;;;;5059288;28;20430;-70
2022/11/28 09:30:44;;;;;;;;;;;20.60;99.90;;;;;;5048875;28;19917;-70
2022/11/28 09:33:12;;;;;;;;;;;20.50;99.90;;;;;;5037670;28;19908;-70
2022/11/28 09:35:39;;;;;;;;;;;20.40;99.90;;;;;;5037678;28;19925;-70
2022/11/28 09:38:06;;;;;;;;;;;20.50;99.90;;;;;;5043215;28;20496;-72
2022/11/28 09:40:41;;;;;;;;;;;20.50;99.90;;;;;;5040404;28;20381;-71
2022/11/28 09:43:19;;;;;;;;;;;20.50;99.90;;;;;;5052230;28;20381;-71
2022/11/28 09:45:50;;;;;;;;;;;20.50;99.90;;;;;;5038518;28;20475;-68
2022/11/28 09:48:36;;;;;;;;;;;20.50;99.90;;;;;;5045060;28;19977;-72
2022/11/28 09:51:23;;;;;;;;;;;20.40;99.90;;;;;;5057557;28;19917;-72
2022/11/28 09:54:13;;;;;;;;;;;20.40;99.90;;;;;;5058492;28;19987;-70
2022/11/28 09:56:40;;;;;;;;;;;20.30;99.90;;;;;;5059637;28;20369;-70
2022/11/28 09:59:26;;;;;;;;;;;20.30;99.90;;;;;;5057852;28;20456;-70
2022/11/28 10:02:02;;;;;;;;;;;20.30;99.90;;;;;;5058046;28;19932;-71
2022/11/28 10:04:44;;;;;;;;;;;20.30;99.90;;;;;;5056496;28;19916;-73
2022/11/28 10:07:17;;;;;;;;;;;20.30;99.90;;;;;;5056816;28;19912;-71
2022/11/28 10:10:04;;;;;;;;;;;20.30;99.90;;;;;;5057258;28;19913;-72
2022/11/28 10:12:49;;;;;;;;;;;20.30;99.90;;;;;;5059801;28;19951;-71
2022/11/28 10:15:31;;;;;;;;;;;20.30;99.90;;;;;;5056059;28;19913;-70
2022/11/28 10:18:13;;;;;;;;;;;20.30;99.90;;;;;;5049504;28;20320;-72
2022/11/28 10:20:45;;;;;;;;;;;20.40;99.90;;;;;;5057047;28;19915;-71
2022/11/28 10:23:14;;;;;;;;;;;20.30;99.90;;;;;;5056406;28;19925;-70
2022/11/28 10:25:41;;;;;;;;;;;20.40;99.90;;;;;;5039641;28;19920;-71
2022/11/28 10:28:14;;;;;;;;;;;20.40;99.90;;;;;;5042699;28;20420;-73
2022/11/28 10:30:42;;;;;;;;;;;20.40;99.90;;;;;;5049601;28;19926;-72
2022/11/28 10:33:16;;;;;;;;;;;20.50;99.90;;;;;;5067120;28;19916;-71
2022/11/28 10:35:48;;;;;;;;;;;20.40;99.90;;;;;;5047341;28;19909;-72
2022/11/28 10:38:16;;;;;;;;;;;20.30;99.90;;;;;;5046185;28;20400;-72
2022/11/28 10:40:51;;;;;;;;;;;20.20;99.90;;;;;;5048086;28;19924;-71
2022/11/28 10:43:31;;;;;;;;;;;20.20;99.90;;;;;;5044018;28;19958;-71
2022/11/28 10:46:16;;;;;;;;;;;20.20;99.90;;;;;;5046213;28;19909;-70
2022/11/28 10:49:03;;;;;;;;;;;20.20;99.90;;;;;;5043098;28;19913;-71
2022/11/28 10:51:48;;;;;;;;;;;20.10;99.90;;;;;;5042776;28;19920;-69
2022/11/28 10:54:33;;;;;;;;;;;20.20;99.90;;;;;;5044388;28;19966;-70
2022/11/28 10:57:03;;;;;;;;;;;20.00;99.90;;;;;;5046780;28;20011;-70
2022/11/28 10:59:42;;;;;;;;;;;20.00;99.90;;;;;;5046241;28;20476;-70
2022/11/28 11:02:20;;;;;;;;;;;20.00;99.90;;;;;;5045999;28;19992;-71
2022/11/28 11:04:47;;;;;;;;;;;20.00;99.90;;;;;;5045673;28;19959;-71
2022/11/28 11:07:13;;;;;;;;;;;19.90;99.90;;;;;;5039752;28;19916;-69
2022/11/28 11:09:41;;;;;;;;;;;20.00;99.90;;;;;;5046396;28;19913;-70
2022/11/28 11:12:15;;;;;;;;;;;20.00;99.90;;;;;;5046080;28;19917;-70
2022/11/28 11:14:42;;;;;;;;;;;20.10;99.90;;;;;;5045854;28;19982;-68
2022/11/28 11:17:23;;;;;;;;;;;20.10;99.90;;;;;;5048396;28;19935;-68
2022/11/28 11:19:49;;;;;;;;;;;20.20;99.90;;;;;;5047429;28;20319;-69
2022/11/28 11:22:25;;;;;;;;;;;20.20;99.90;;;;;;5045714;28;20358;-72
2022/11/28 11:25:06;;;;;;;;;;;20.30;99.90;;;;;;5045758;28;20400;-72
2022/11/28 11:27:34;;;;;;;;;;;20.30;99.90;;;;;;5045584;28;20292;-67
2022/11/28 11:30:14;;;;;;;;;;;20.30;99.90;;;;;;5045816;28;19908;-71
2022/11/28 11:32:41;;;;;;;;;;;20.30;99.90;;;;;;5046302;28;19967;-70
2022/11/28 11:35:16;;;;;;;;;;;20.30;99.90;;;;;;5045912;28;19908;-68
2022/11/28 11:37:43;;;;;;;;;;;20.20;99.90;;;;;;5046027;28;19916;-70
2022/11/28 11:40:20;;;;;;;;;;;20.20;99.90;;;;;;5048279;28;19916;-69
2022/11/28 11:42:57;;;;;;;;;;;20.20;99.90;;;;;;5045063;28;19917;-69
2022/11/28 11:45:30;;;;;;;;;;;20.20;99.90;;;;;;5044912;28;19913;-70
2022/11/28 11:47:57;;;;;;;;;;;20.30;99.90;;;;;;5046332;28;19944;-70
2022/11/28 11:50:25;;;;;;;;;;;20.20;99.90;;;;;;5046104;28;19921;-69
2022/11/28 11:53:00;;;;;;;;;;;20.10;99.90;;;;;;5046290;28;20195;-69
2022/11/28 11:55:28;;;;;;;;;;;20.10;99.90;;;;;;5041291;28;19915;-69
2022/11/28 11:57:57;;;;;;;;;;;20.00;99.90;;;;;;5044115;28;20383;-69
2022/11/28 12:00:28;;;;;;;;;;;20.00;99.90;;;;;;5058471;28;20280;-69
2022/11/28 12:02:58;;;;;;;;;;;19.90;99.90;;;;;;5047410;28;19939;-69
2022/11/28 12:05:30;;;;;;;;;;;19.90;99.90;;;;;;5040134;28;19919;-69
2022/11/28 12:08:14;;;;;;;;;;;19.90;99.90;;;;;;5040673;28;19913;-71
2022/11/28 12:10:47;;;;;;;;;;;20.00;99.90;;;;;;5040535;28;19957;-69
2022/11/28 12:13:21;;;;;;;;;;;20.00;99.90;;;;;;5041010;28;20297;-69
2022/11/28 12:15:54;;;;;;;;;;;20.00;99.90;;;;;;5051874;28;19912;-72
2022/11/28 12:18:20;;;;;;;;;;;19.90;99.90;;;;;;5050989;28;19939;-70
2022/11/28 12:20:50;;;;;;;;;;;19.90;99.90;;;;;;5040564;28;20843;-71
2022/11/28 12:23:22;;;;;;;;;;;20.00;99.90;;;;;;5040331;28;19921;-72
2022/11/28 12:25:52;;;;;;;;;;;19.90;99.90;;;;;;5039072;28;20407;-72
2022/11/28 12:28:36;;;;;;;;;;;19.90;99.90;;;;;;5040731;28;19944;-70
2022/11/28 12:31:12;;;;;;;;;;;19.90;99.90;;;;;;5040150;28;19971;-70
2022/11/28 12:34:02;;;;;;;;;;;19.90;99.90;;;;;;5038639;28;20273;-72
2022/11/28 12:36:33;;;;;;;;;;;19.80;99.90;;;;;;5032202;28;19988;-71
2022/11/28 12:39:03;;;;;;;;;;;19.80;99.90;;;;;;5057883;28;19916;-70
2022/11/28 12:41:46;;;;;;;;;;;19.80;99.90;;;;;;5059203;28;19908;-70
2022/11/28 12:44:16;;;;;;;;;;;19.80;99.90;;;;;;5060306;28;19979;-70
2022/11/28 12:46:51;;;;;;;;;;;19.80;99.90;;;;;;5044783;28;20038;-70
2022/11/28 12:49:20;;;;;;;;;;;19.80;99.90;;;;;;5040456;28;19973;-69
2022/11/28 12:52:05;;;;;;;;;;;19.80;99.90;;;;;;5040216;28;19916;-70
2022/11/28 12:54:32;;;;;;;;;;;19.80;99.90;;;;;;5038795;28;19909;-70
2022/11/28 12:57:10;;;;;;;;;;;19.80;99.90;;;;;;5038904;28;19962;-70
2022/11/28 13:00:03;;;;;;;;;;;19.80;99.90;;;;;;5050231;28;19935;-69
2022/11/28 13:02:36;;;;;;;;;;;19.80;99.90;;;;;;5057105;28;19909;-71
2022/11/28 13:05:21;;;;;;;;;;;19.80;99.90;;;;;;5058894;28;19909;-70
2022/11/28 13:08:06;;;;;;;;;;;19.80;99.90;;;;;;5048677;28;19909;-70
2022/11/28 13:10:53;;;;;;;;;;;19.70;99.90;;;;;;5037989;28;19974;-69
2022/11/28 13:13:23;;;;;;;;;;;19.70;99.90;;;;;;5043201;28;20103;-69
2022/11/28 13:15:53;;;;;;;;;;;19.70;99.90;;;;;;5059362;28;19912;-69
2022/11/28 13:18:26;;;;;;;;;;;19.60;99.90;;;;;;5056250;28;19960;-69
2022/11/28 13:21:13;;;;;;;;;;;19.60;99.90;;;;;;5040023;28;19952;-70
2022/11/28 13:23:59;;;;;;;;;;;19.60;99.90;;;;;;5049736;28;19928;-69
2022/11/28 13:26:26;;;;;;;;;;;19.70;99.90;;;;;;5059506;28;19915;-70
2022/11/28 13:29:05;;;;;;;;;;;19.60;99.90;;;;;;5058776;28;20387;-69
2022/11/28 13:31:41;;;;;;;;;;;19.70;99.90;;;;;;5058948;28;19917;-71
2022/11/28 13:34:14;;;;;;;;;;;19.70;99.90;;;;;;5058772;28;19908;-69
2022/11/28 13:36:47;;;;;;;;;;;19.80;99.90;;;;;;5057788;28;19912;-69
2022/11/28 13:39:20;;;;;;;;;;;19.70;99.90;;;;;;5058206;28;19912;-71
2022/11/28 13:41:46;;;;;;;;;;;19.80;99.90;;;;;;5047634;28;20012;-70
2022/11/28 13:44:16;;;;;;;;;;;19.80;99.90;;;;;;5038437;28;19948;-72
2022/11/28 13:46:44;;;;;;;;;;;19.90;99.90;;;;;;5041102;28;19917;-69
2022/11/28 13:49:23;;;;;;;;;;;19.80;99.90;;;;;;5058129;28;20288;-70
2022/11/28 13:52:08;;;;;;;;;;;19.90;99.90;;;;;;5058622;28;19924;-71
2022/11/28 13:54:40;;;;;;;;;;;19.90;99.90;;;;;;5057987;28;20250;-71
2022/11/28 13:57:25;;;;;;;;;;;19.90;99.90;;;;;;5055878;28;19920;-71
2022/11/28 13:59:54;;;;;;;;;;;19.80;99.90;;;;;;5057251;28;19913;-69
2022/11/28 14:02:41;;;;;;;;;;;19.70;99.90;;;;;;5057643;28;19915;-71
2022/11/28 14:05:16;;;;;;;;;;;19.70;99.90;;;;;;5057967;28;19916;-70
2022/11/28 14:07:46;;;;;;;;;;;19.70;99.90;;;;;;5056931;28;19920;-69
2022/11/28 14:10:15;;;;;;;;;;;19.70;99.90;;;;;;5057317;28;19909;-71
2022/11/28 14:12:42;;;;;;;;;;;19.70;99.90;;;;;;5040781;28;19917;-69
2022/11/28 14:15:14;;;;;;;;;;;19.80;99.90;;;;;;5038089;28;19912;-71
2022/11/28 14:17:43;;;;;;;;;;;19.80;99.90;;;;;;5037592;28;20258;-70
2022/11/28 14:20:16;;;;;;;;;;;19.80;99.90;;;;;;5049875;28;19920;-71
2022/11/28 14:23:01;;;;;;;;;;;19.70;99.90;;;;;;5056025;28;19923;-69
2022/11/28 14:25:28;;;;;;;;;;;19.70;99.90;;;;;;5056338;28;19920;-69
2022/11/28 14:27:57;;;;;;;;;;;19.70;99.90;;;;;;5056358;28;19908;-69
2022/11/28 14:30:34;;;;;;;;;;;19.60;99.90;;;;;;5050614;28;19923;-71
2022/11/28 14:33:03;;;;;;;;;;;19.60;99.90;;;;;;5037698;28;20038;-69
2022/11/28 14:35:48;;;;;;;;;;;19.50;99.90;;;;;;5036955;28;19915;-70
2022/11/28 14:38:29;;;;;;;;;;;19.60;99.90;;;;;;5037329;28;19909;-70